Archival Weather

Chicago O'Hare International

Chicago, Illinois (KORD)

Report from: Wednesday, August 23, 2023 2:51 PM CDT
Current time: Monday, July 22, 2024 5:52 AM CDT

Current weather – Weather history – Daily summaries
Weather forecast

Temperature36.1°C (97.0°F)
Heat index45.8°C (114.4°F)
Dew point25.6°C (78.1°F)
Winds 13 kts (6.7 m/s, 15 mph) West (260°)
Wind gusts 23 kts (11.8 m/s, 26.5 mph)
Visibility10 mi. (16.1 km)
Clouds Few clouds 25,000 ft. (7,620 m)
Altimeter29.89 in.Hg (1012 mB)
Relative humidity55 %
Density altitude2,884 ft. (879 m)
Sea-level pressure101.2 kPa (1012 mB, 29.87 in.Hg)
Remarks Automated weather observing station with precipitation discriminator
Flight conditions Visual Meteorological Conditions
Raw dataKORD 231951Z 26013G23KT 10SM FEW250 36/26 A2989 RMK AO2 SLP115 T03610256
An error has occurred. This application may no longer respond until reloaded. Reload 🗙